createdAt,value
2023-03-16T00:01:27.189Z,1.59
2023-03-16T00:03:55.077Z,1.55
2023-03-16T00:06:25.505Z,1.52
2023-03-16T00:08:58.872Z,1.52
2023-03-16T00:11:26.805Z,1.49
2023-03-16T00:13:54.874Z,1.46
2023-03-16T00:16:22.863Z,1.45
2023-03-16T00:18:50.892Z,1.46
2023-03-16T00:21:18.836Z,1.47
2023-03-16T00:23:46.867Z,1.48
2023-03-16T00:26:15.109Z,1.49
2023-03-16T00:28:42.911Z,1.50
2023-03-16T00:31:12.029Z,1.50
2023-03-16T00:33:42.863Z,1.48
2023-03-16T00:36:11.728Z,1.50
2023-03-16T00:38:45.393Z,1.52
2023-03-16T00:41:14.667Z,1.50
2023-03-16T00:43:45.387Z,1.47
2023-03-16T00:46:15.934Z,1.43
2023-03-16T00:48:46.722Z,1.39
2023-03-16T00:51:17.572Z,1.38
2023-03-16T00:53:46.832Z,1.34
2023-03-16T00:56:15.418Z,1.28
2023-03-16T00:58:43.927Z,1.22
2023-03-16T01:01:16.400Z,1.17
2023-03-16T01:03:44.465Z,1.14
2023-03-16T01:06:15.227Z,1.06
2023-03-16T01:08:43.803Z,1.00
2023-03-16T01:11:17.484Z,0.97
2023-03-16T01:13:49.439Z,0.95
2023-03-16T01:16:19.583Z,0.94
2023-03-16T01:18:47.854Z,0.94
2023-03-16T01:21:15.858Z,0.94
2023-03-16T01:23:44.432Z,0.94
2023-03-16T01:26:12.467Z,0.93
2023-03-16T01:28:40.261Z,0.94
2023-03-16T01:31:10.848Z,0.94
2023-03-16T01:33:38.904Z,0.93
2023-03-16T01:36:25.360Z,0.92
2023-03-16T01:38:54.108Z,0.90
2023-03-16T01:41:22.274Z,0.92
2023-03-16T01:43:51.999Z,0.93
2023-03-16T01:46:24.617Z,0.94
2023-03-16T01:49:05.647Z,0.94
2023-03-16T01:51:53.615Z,0.92
2023-03-16T01:54:30.019Z,0.93
2023-03-16T01:57:10.132Z,0.92
2023-03-16T01:59:52.949Z,0.90
2023-03-16T02:02:24.362Z,0.87
2023-03-16T02:05:10.753Z,0.84
2023-03-16T02:07:44.103Z,0.81
2023-03-16T02:10:14.224Z,0.81
2023-03-16T02:12:43.352Z,0.81
2023-03-16T02:15:13.514Z,0.79
2023-03-16T02:17:44.336Z,0.76
2023-03-16T02:20:37.869Z,0.72
2023-03-16T02:23:09.209Z,0.71
2023-03-16T02:25:43.195Z,0.69
2023-03-16T02:28:15.720Z,0.66
2023-03-16T02:30:44.021Z,0.62
2023-03-16T02:33:12.968Z,0.62
2023-03-16T02:35:41.263Z,0.61
2023-03-16T02:38:09.939Z,0.59
2023-03-16T02:40:38.990Z,0.59
2023-03-16T02:43:15.008Z,0.58
2023-03-16T02:45:49.304Z,0.60
2023-03-16T02:48:23.448Z,0.60
2023-03-16T02:50:54.478Z,0.58
2023-03-16T02:53:22.444Z,0.56
2023-03-16T02:55:50.811Z,0.56
2023-03-16T02:58:18.968Z,0.55
2023-03-16T03:00:47.142Z,0.54
2023-03-16T03:03:15.094Z,0.51
2023-03-16T03:05:43.075Z,0.48
2023-03-16T03:08:11.133Z,0.47
2023-03-16T03:10:39.939Z,0.46
2023-03-16T03:13:07.836Z,0.46
2023-03-16T03:15:35.856Z,0.47
2023-03-16T03:18:04.504Z,0.48
2023-03-16T03:20:33.512Z,0.48
2023-03-16T03:23:03.027Z,0.48
2023-03-16T03:25:35.079Z,0.47
2023-03-16T03:28:05.715Z,0.45
2023-03-16T03:30:33.756Z,0.40
2023-03-16T03:33:01.827Z,0.36
2023-03-16T03:35:30.016Z,0.32
2023-03-16T03:37:57.890Z,0.31
2023-03-16T03:40:26.054Z,0.31
2023-03-16T03:42:54.353Z,0.31
2023-03-16T03:45:22.383Z,0.32
2023-03-16T03:47:50.975Z,0.34
2023-03-16T03:50:19.247Z,0.32
2023-03-16T03:52:47.160Z,0.31
2023-03-16T03:55:14.993Z,0.29
2023-03-16T03:57:42.845Z,0.28
2023-03-16T04:00:12.062Z,0.27
2023-03-16T04:02:45.452Z,0.27
2023-03-16T04:05:13.612Z,0.28
2023-03-16T04:07:41.523Z,0.29
2023-03-16T04:10:10.513Z,0.28
2023-03-16T04:12:38.666Z,0.26
2023-03-16T04:15:07.698Z,0.24
2023-03-16T04:17:35.951Z,0.23
2023-03-16T04:20:14.450Z,0.21
2023-03-16T04:22:45.013Z,0.22
2023-03-16T04:25:16.481Z,0.22
2023-03-16T04:27:47.050Z,0.22
2023-03-16T04:30:15.941Z,0.23
2023-03-16T04:32:44.247Z,0.23
2023-03-16T04:35:12.194Z,0.24
2023-03-16T04:37:40.082Z,0.23
2023-03-16T04:40:15.734Z,0.21
2023-03-16T04:42:46.036Z,0.23
2023-03-16T04:45:16.265Z,0.19
2023-03-16T04:47:44.085Z,0.17
2023-03-16T04:50:12.916Z,0.16
2023-03-16T04:52:41.496Z,0.14
2023-03-16T04:55:09.557Z,0.12
2023-03-16T04:57:38.999Z,0.11
2023-03-16T05:00:12.934Z,0.10
2023-03-16T05:02:40.739Z,0.09
2023-03-16T05:05:09.191Z,0.06
2023-03-16T05:07:37.159Z,0.06
2023-03-16T05:10:05.459Z,0.06
2023-03-16T05:12:33.658Z,0.06
2023-03-16T05:15:01.891Z,0.05
2023-03-16T05:17:29.755Z,0.05
2023-03-16T05:19:57.597Z,0.03
2023-03-16T05:22:25.958Z,0.04
2023-03-16T05:24:53.891Z,0.04
2023-03-16T05:27:21.781Z,0.04
2023-03-16T05:29:49.822Z,0.03
2023-03-16T05:32:17.791Z,0.02
2023-03-16T05:34:45.836Z,0.05
2023-03-16T05:37:13.622Z,0.06
2023-03-16T05:39:41.508Z,0.07
2023-03-16T05:42:10.309Z,0.06
2023-03-16T05:44:38.425Z,0.06
2023-03-16T05:47:06.589Z,0.04
2023-03-16T05:49:34.585Z,0.02
2023-03-16T05:52:02.676Z,0.02
2023-03-16T05:54:30.588Z,0.01
2023-03-16T05:56:59.446Z,0.01
2023-03-16T05:59:27.284Z,-0.01
2023-03-16T06:01:55.304Z,-0.02
2023-03-16T06:04:23.645Z,-0.01
2023-03-16T06:06:51.636Z,0.03
2023-03-16T06:09:19.529Z,0.08
2023-03-16T06:11:47.338Z,0.12
2023-03-16T06:14:15.145Z,0.15
2023-03-16T06:16:43.148Z,0.15
2023-03-16T06:19:11.232Z,0.16
2023-03-16T06:21:39.191Z,0.17
2023-03-16T06:24:09.194Z,0.17
2023-03-16T06:26:37.488Z,0.14
2023-03-16T06:29:05.913Z,0.16
2023-03-16T06:31:34.303Z,0.17
2023-03-16T06:34:02.679Z,0.19
2023-03-16T06:36:30.888Z,0.21
2023-03-16T06:38:59.024Z,0.22
2023-03-16T06:41:26.987Z,0.23
2023-03-16T06:43:55.009Z,0.23
2023-03-16T06:46:23.463Z,0.24
2023-03-16T06:48:51.552Z,0.23
2023-03-16T06:51:19.457Z,0.23
2023-03-16T06:53:47.415Z,0.23
2023-03-16T06:56:15.332Z,0.24
2023-03-16T06:58:43.354Z,0.27
2023-03-16T07:01:12.689Z,0.29
2023-03-16T07:03:42.032Z,0.34
2023-03-16T07:06:09.939Z,0.37
2023-03-16T07:08:38.002Z,0.40
2023-03-16T07:11:06.117Z,0.44
2023-03-16T07:13:35.597Z,0.47
2023-03-16T07:16:05.051Z,0.48
2023-03-16T07:18:33.330Z,0.49
2023-03-16T07:21:01.228Z,0.49
2023-03-16T07:23:29.066Z,0.50
2023-03-16T07:25:56.978Z,0.51
2023-03-16T07:28:24.810Z,0.53
2023-03-16T07:31:03.290Z,0.54
2023-03-16T07:33:33.656Z,0.55
2023-03-16T07:36:05.747Z,0.55
2023-03-16T07:38:34.074Z,0.53
2023-03-16T07:41:02.081Z,0.50
2023-03-16T07:43:30.054Z,0.49
2023-03-16T07:45:58.546Z,0.50
2023-03-16T07:48:26.651Z,0.51
2023-03-16T07:50:54.611Z,0.53
2023-03-16T07:53:22.846Z,0.53
2023-03-16T07:55:50.772Z,0.55
2023-03-16T07:58:18.660Z,0.56
2023-03-16T08:00:46.577Z,0.56
2023-03-16T08:03:14.805Z,0.55
2023-03-16T08:05:42.844Z,0.52
2023-03-16T08:08:10.725Z,0.50
2023-03-16T08:10:38.685Z,0.49
2023-03-16T08:13:06.894Z,0.50
2023-03-16T08:15:35.117Z,0.56
2023-03-16T08:18:03.290Z,0.60
2023-03-16T08:20:31.667Z,0.61
2023-03-16T08:23:00.154Z,0.59
2023-03-16T08:25:28.056Z,0.59
2023-03-16T08:27:58.260Z,0.62
2023-03-16T08:30:27.233Z,0.64
2023-03-16T08:32:57.858Z,0.63
2023-03-16T08:35:26.156Z,0.64
2023-03-16T08:37:54.477Z,0.63
2023-03-16T08:40:23.163Z,0.62
2023-03-16T08:42:51.234Z,0.63
2023-03-16T08:45:20.035Z,0.66
2023-03-16T08:47:47.969Z,0.69
2023-03-16T08:50:16.291Z,0.71
2023-03-16T08:52:44.320Z,0.76
2023-03-16T08:55:15.623Z,0.80
2023-03-16T08:57:45.699Z,0.83
2023-03-16T09:00:15.020Z,0.85
2023-03-16T09:02:43.998Z,0.86
2023-03-16T09:05:14.894Z,0.84
2023-03-16T09:07:43.833Z,0.84
2023-03-16T09:10:16.582Z,0.86
2023-03-16T09:12:45.113Z,0.88
2023-03-16T09:15:13.923Z,0.96
2023-03-16T09:17:45.184Z,1.01
2023-03-16T09:20:26.895Z,1.01
2023-03-16T09:22:58.999Z,0.99
2023-03-16T09:25:26.890Z,0.97
2023-03-16T09:27:55.900Z,0.97
2023-03-16T09:30:24.112Z,0.98
2023-03-16T09:32:52.335Z,0.98
2023-03-16T09:35:20.301Z,0.99
2023-03-16T09:38:04.662Z,1.00
2023-03-16T09:40:37.079Z,1.05
2023-03-16T09:43:17.187Z,1.11
2023-03-16T09:45:57.050Z,1.13
2023-03-16T09:48:29.706Z,1.14
2023-03-16T09:51:00.197Z,1.16
2023-03-16T09:53:37.574Z,1.18
2023-03-16T09:56:20.251Z,1.20
2023-03-16T09:58:48.327Z,1.20
2023-03-16T10:01:43.340Z,1.21
2023-03-16T10:04:33.831Z,1.25
2023-03-16T10:07:24.642Z,1.27
2023-03-16T10:10:28.693Z,1.26
2023-03-16T10:13:01.595Z,1.25
2023-03-16T10:15:33.872Z,1.26
2023-03-16T10:18:18.869Z,1.26
2023-03-16T10:20:48.360Z,1.24
2023-03-16T10:23:25.067Z,1.23
2023-03-16T10:25:55.141Z,1.24
2023-03-16T10:28:26.359Z,1.24
2023-03-16T10:30:56.571Z,1.23
2023-03-16T10:33:36.568Z,1.23
2023-03-16T10:36:16.045Z,1.24
2023-03-16T10:38:52.172Z,1.24
2023-03-16T10:41:23.152Z,1.24
2023-03-16T10:43:57.531Z,1.23
2023-03-16T10:46:27.872Z,1.25
2023-03-16T10:49:01.382Z,1.26
2023-03-16T10:51:33.566Z,1.27
2023-03-16T10:54:16.185Z,1.24
2023-03-16T10:56:46.150Z,1.23
2023-03-16T10:59:35.429Z,1.26
2023-03-16T11:02:17.289Z,1.32
2023-03-16T11:04:46.210Z,1.34
2023-03-16T11:07:19.145Z,1.35
2023-03-16T11:09:48.685Z,1.40
2023-03-16T11:12:26.538Z,1.42
2023-03-16T11:14:56.173Z,1.38
2023-03-16T11:17:56.563Z,1.38
2023-03-16T11:20:28.665Z,1.43
2023-03-16T11:22:57.569Z,1.45
2023-03-16T11:25:31.814Z,1.47
2023-03-16T11:28:12.038Z,1.49
2023-03-16T11:30:49.692Z,1.54
2023-03-16T11:33:17.681Z,1.58
2023-03-16T11:36:08.958Z,1.58
2023-03-16T11:38:52.256Z,1.60
2023-03-16T11:41:42.959Z,1.60
2023-03-16T11:44:19.356Z,1.59
2023-03-16T11:47:01.562Z,1.60
2023-03-16T11:49:45.791Z,1.58
2023-03-16T11:52:35.274Z,1.57
2023-03-16T11:55:19.665Z,1.57
2023-03-16T11:58:02.863Z,1.58
2023-03-16T12:00:37.041Z,1.56
2023-03-16T12:03:36.617Z,1.51
2023-03-16T12:06:23.004Z,1.52
2023-03-16T12:09:10.918Z,1.52
2023-03-16T12:11:43.598Z,1.56
2023-03-16T12:14:22.888Z,1.58
2023-03-16T12:17:15.815Z,1.59
2023-03-16T12:20:23.304Z,1.57
2023-03-16T12:23:14.853Z,1.57
2023-03-16T12:25:47.619Z,1.54
2023-03-16T12:28:26.855Z,1.52
2023-03-16T12:31:03.503Z,1.53
2023-03-16T12:33:47.784Z,1.53
2023-03-16T12:36:16.814Z,1.50
2023-03-16T12:38:53.326Z,1.50
2023-03-16T12:41:40.997Z,1.52
2023-03-16T12:44:19.624Z,1.56
2023-03-16T12:46:56.580Z,1.61
2023-03-16T12:49:26.549Z,1.62
2023-03-16T12:52:07.128Z,1.62
2023-03-16T12:54:35.430Z,1.64
2023-03-16T12:57:09.064Z,1.66
2023-03-16T12:59:43.243Z,1.68
2023-03-16T13:02:20.401Z,1.70
2023-03-16T13:04:59.270Z,1.69
2023-03-16T13:07:31.218Z,1.67
2023-03-16T13:10:14.854Z,1.66
2023-03-16T13:12:46.336Z,1.69
2023-03-16T13:15:17.805Z,1.72
2023-03-16T13:17:48.433Z,1.75
2023-03-16T13:20:34.288Z,1.76
2023-03-16T13:23:24.081Z,1.78
2023-03-16T13:26:06.528Z,1.80
2023-03-16T13:28:39.011Z,1.78
2023-03-16T13:31:20.909Z,1.77
2023-03-16T13:33:52.820Z,1.79
2023-03-16T13:36:21.932Z,1.81
2023-03-16T13:39:20.902Z,1.83
2023-03-16T13:42:00.917Z,1.81
2023-03-16T13:44:30.154Z,1.82
2023-03-16T13:47:03.425Z,1.82
2023-03-16T13:49:32.039Z,1.83
2023-03-16T13:52:03.625Z,1.83
2023-03-16T13:54:31.822Z,1.83
2023-03-16T13:57:04.086Z,1.84
2023-03-16T13:59:32.005Z,1.87
2023-03-16T14:02:02.145Z,1.92
2023-03-16T14:04:32.279Z,1.95
2023-03-16T14:07:03.789Z,1.96
2023-03-16T14:09:34.573Z,1.99
2023-03-16T14:12:03.751Z,2.03
2023-03-16T14:14:39.396Z,2.05
2023-03-16T14:17:20.550Z,2.06
2023-03-16T14:19:50.733Z,2.06
2023-03-16T14:22:23.909Z,2.03
2023-03-16T14:24:56.877Z,1.98
2023-03-16T14:27:39.993Z,1.93
2023-03-16T14:30:16.487Z,1.90
2023-03-16T14:33:00.063Z,1.86
2023-03-16T14:35:48.671Z,1.83
2023-03-16T14:38:36.168Z,1.80
2023-03-16T14:41:29.004Z,1.79
2023-03-16T14:44:01.707Z,1.80
2023-03-16T14:46:35.141Z,1.84
2023-03-16T14:49:21.921Z,1.85
2023-03-16T14:52:10.530Z,1.86
2023-03-16T14:54:38.656Z,1.88
2023-03-16T14:57:06.823Z,1.89
2023-03-16T14:59:34.805Z,1.88
2023-03-16T15:02:06.965Z,1.90
2023-03-16T15:04:37.733Z,1.95
2023-03-16T15:07:34.222Z,1.98
2023-03-16T15:10:33.479Z,2.00
2023-03-16T15:13:06.558Z,1.99
2023-03-16T15:15:34.542Z,1.98
2023-03-16T15:18:02.828Z,1.99
2023-03-16T15:20:35.962Z,2.02
2023-03-16T15:23:05.259Z,2.06
2023-03-16T15:25:37.327Z,2.08
2023-03-16T15:28:26.040Z,2.08
2023-03-16T15:30:59.729Z,2.08
2023-03-16T15:33:28.268Z,2.08
2023-03-16T15:35:58.996Z,2.08
2023-03-16T15:38:34.652Z,2.07
2023-03-16T15:41:03.372Z,2.06
2023-03-16T15:43:33.527Z,2.06
2023-03-16T15:46:01.349Z,2.04
2023-03-16T15:48:29.374Z,2.00
2023-03-16T15:50:59.891Z,1.99
2023-03-16T15:53:50.374Z,1.99
2023-03-16T15:56:23.886Z,1.97
2023-03-16T15:58:52.734Z,1.95
2023-03-16T16:01:24.102Z,1.94
2023-03-16T16:03:54.106Z,1.95
2023-03-16T16:06:22.674Z,1.94
2023-03-16T16:08:50.714Z,1.94
2023-03-16T16:11:24.038Z,1.94
2023-03-16T16:13:52.519Z,1.95
2023-03-16T16:16:20.681Z,1.94
2023-03-16T16:18:48.830Z,1.92
2023-03-16T16:21:26.793Z,1.93
2023-03-16T16:23:55.536Z,1.91
2023-03-16T16:26:41.590Z,1.88
2023-03-16T16:29:22.596Z,1.88
2023-03-16T16:31:52.219Z,1.89
2023-03-16T16:34:24.405Z,1.92
2023-03-16T16:36:54.431Z,1.93
2023-03-16T16:39:22.976Z,1.93
2023-03-16T16:41:54.688Z,1.95
2023-03-16T16:44:34.347Z,1.96
2023-03-16T16:47:03.983Z,1.98
2023-03-16T16:49:32.295Z,1.96
2023-03-16T16:52:00.254Z,1.95
2023-03-16T16:54:31.134Z,1.93
2023-03-16T16:57:00.672Z,1.91
2023-03-16T16:59:34.537Z,1.91
2023-03-16T17:02:16.811Z,1.92
2023-03-16T17:04:46.932Z,1.90
2023-03-16T17:07:14.872Z,1.89
2023-03-16T17:09:42.771Z,1.90
2023-03-16T17:12:21.261Z,1.92
2023-03-16T17:14:50.624Z,1.96
2023-03-16T17:17:19.641Z,1.98
2023-03-16T17:19:48.365Z,1.98
2023-03-16T17:22:24.981Z,1.98
2023-03-16T17:24:55.192Z,1.97
2023-03-16T17:27:29.515Z,1.96
2023-03-16T17:29:58.560Z,1.96
2023-03-16T17:32:26.628Z,1.95
2023-03-16T17:34:54.546Z,1.95
2023-03-16T17:37:23.313Z,1.96
2023-03-16T17:39:52.030Z,1.96
2023-03-16T17:42:23.069Z,1.96
2023-03-16T17:44:53.341Z,1.96
2023-03-16T17:47:23.906Z,1.95
2023-03-16T17:49:53.113Z,1.93
2023-03-16T17:52:23.730Z,1.92
2023-03-16T17:54:53.550Z,1.90
2023-03-16T17:57:27.526Z,1.88
2023-03-16T17:59:55.526Z,1.87
2023-03-16T18:02:49.957Z,1.86
2023-03-16T18:05:21.278Z,1.86
2023-03-16T18:07:49.578Z,1.87
2023-03-16T18:10:20.809Z,1.88
2023-03-16T18:12:54.930Z,1.90
2023-03-16T18:15:26.377Z,1.90
2023-03-16T18:17:54.760Z,1.90
2023-03-16T18:20:28.315Z,1.91
2023-03-16T18:22:58.819Z,1.90
2023-03-16T18:25:30.436Z,1.92
2023-03-16T18:27:58.687Z,1.93
2023-03-16T18:30:27.389Z,1.93
2023-03-16T18:32:56.736Z,1.94
2023-03-16T18:35:25.036Z,1.95
2023-03-16T18:37:55.686Z,1.97
2023-03-16T18:40:24.794Z,1.97
2023-03-16T18:42:54.317Z,1.97
2023-03-16T18:45:22.651Z,1.97
2023-03-16T18:47:54.112Z,1.96
2023-03-16T18:50:26.344Z,1.94
2023-03-16T18:52:55.494Z,1.93
2023-03-16T18:55:25.133Z,1.92
2023-03-16T18:57:56.447Z,1.94
2023-03-16T19:00:29.882Z,1.97
2023-03-16T19:03:09.677Z,1.99
2023-03-16T19:05:39.520Z,2.02
2023-03-16T19:08:07.452Z,2.06
2023-03-16T19:10:38.796Z,2.08
2023-03-16T19:13:17.194Z,2.07
2023-03-16T19:15:45.825Z,2.07
2023-03-16T19:18:14.014Z,2.05
2023-03-16T19:20:44.192Z,2.06
2023-03-16T19:23:49.831Z,2.09
2023-03-16T19:26:18.242Z,2.10
2023-03-16T19:28:46.652Z,2.07
2023-03-16T19:31:21.873Z,2.06
2023-03-16T19:33:51.923Z,2.03
2023-03-16T19:36:25.715Z,2.02
2023-03-16T19:38:53.667Z,2.03
2023-03-16T19:41:32.121Z,2.04
2023-03-16T19:44:08.414Z,2.05
2023-03-16T19:46:36.441Z,2.06
2023-03-16T19:49:04.305Z,2.05
2023-03-16T19:51:32.910Z,2.03
2023-03-16T19:54:01.532Z,2.02
2023-03-16T19:56:29.695Z,2.02
2023-03-16T19:58:58.725Z,2.04
2023-03-16T20:01:32.528Z,2.05
2023-03-16T20:04:04.340Z,2.07
2023-03-16T20:06:33.332Z,2.06
2023-03-16T20:09:01.655Z,2.07
2023-03-16T20:11:31.641Z,2.08
2023-03-16T20:14:01.259Z,2.08
2023-03-16T20:16:32.945Z,2.08
2023-03-16T20:19:13.519Z,2.08
2023-03-16T20:21:42.390Z,2.09
2023-03-16T20:24:19.074Z,2.08
2023-03-16T20:26:49.210Z,2.07
2023-03-16T20:29:20.774Z,2.06
2023-03-16T20:31:48.804Z,2.03
2023-03-16T20:34:29.708Z,2.02
2023-03-16T20:36:58.331Z,2.01
2023-03-16T20:39:26.493Z,2.01
2023-03-16T20:41:54.467Z,2.02
2023-03-16T20:44:25.385Z,2.01
2023-03-16T20:46:53.215Z,2.00
2023-03-16T20:49:25.369Z,2.00
2023-03-16T20:51:53.334Z,1.99
2023-03-16T20:54:21.223Z,2.00
2023-03-16T20:56:49.479Z,2.01
2023-03-16T20:59:21.872Z,2.01
2023-03-16T21:01:51.748Z,1.99
2023-03-16T21:04:22.502Z,1.98
2023-03-16T21:06:51.150Z,1.97
2023-03-16T21:09:20.503Z,1.93
2023-03-16T21:11:48.788Z,1.92
2023-03-16T21:14:20.961Z,1.92
2023-03-16T21:16:49.464Z,1.93
2023-03-16T21:19:21.276Z,1.96
2023-03-16T21:21:49.728Z,1.97
2023-03-16T21:24:17.717Z,1.99
2023-03-16T21:26:47.579Z,2.00
2023-03-16T21:29:21.855Z,2.00
2023-03-16T21:31:50.046Z,1.99
2023-03-16T21:34:23.807Z,1.97
2023-03-16T21:36:51.843Z,1.93
2023-03-16T21:39:23.806Z,1.91
2023-03-16T21:41:52.052Z,1.89
2023-03-16T21:44:20.720Z,1.88
2023-03-16T21:46:48.783Z,1.87
2023-03-16T21:49:16.757Z,1.86
2023-03-16T21:51:44.658Z,1.86
2023-03-16T21:54:14.642Z,1.84
2023-03-16T21:56:43.310Z,1.83
2023-03-16T21:59:11.542Z,1.82
2023-03-16T22:01:54.393Z,1.81
2023-03-16T22:04:28.548Z,1.80
2023-03-16T22:06:56.415Z,1.80
2023-03-16T22:09:25.014Z,1.79
2023-03-16T22:11:52.860Z,1.78
2023-03-16T22:14:20.951Z,1.76
2023-03-16T22:16:49.243Z,1.75
2023-03-16T22:19:18.185Z,1.75
2023-03-16T22:21:47.347Z,1.74
2023-03-16T22:24:18.420Z,1.73
2023-03-16T22:26:47.609Z,1.74
2023-03-16T22:29:26.420Z,1.74
2023-03-16T22:32:07.599Z,1.75
2023-03-16T22:34:43.128Z,1.75
2023-03-16T22:37:16.331Z,1.74
2023-03-16T22:39:44.874Z,1.73
2023-03-16T22:42:48.295Z,1.70
2023-03-16T22:45:21.885Z,1.66
2023-03-16T22:47:50.545Z,1.62
2023-03-16T22:50:21.985Z,1.59
2023-03-16T22:52:52.609Z,1.56
2023-03-16T22:55:24.934Z,1.55
2023-03-16T22:58:02.664Z,1.55
2023-03-16T23:00:31.442Z,1.56
2023-03-16T23:02:59.488Z,1.57
2023-03-16T23:05:29.523Z,1.57
2023-03-16T23:08:01.013Z,1.57
2023-03-16T23:10:29.737Z,1.56
2023-03-16T23:12:59.643Z,1.55
2023-03-16T23:15:30.046Z,1.54
2023-03-16T23:17:58.148Z,1.52
2023-03-16T23:20:29.556Z,1.49
2023-03-16T23:22:57.750Z,1.48
2023-03-16T23:25:25.757Z,1.46
2023-03-16T23:27:53.752Z,1.46
2023-03-16T23:30:25.698Z,1.45
2023-03-16T23:32:55.553Z,1.42
2023-03-16T23:35:29.637Z,1.38
2023-03-16T23:37:57.908Z,1.35
2023-03-16T23:40:29.194Z,1.32
2023-03-16T23:42:59.506Z,1.27
2023-03-16T23:45:52.155Z,1.21
2023-03-16T23:48:22.296Z,1.17
2023-03-16T23:50:54.342Z,1.14
2023-03-16T23:53:22.717Z,1.10
2023-03-16T23:55:50.980Z,1.06
2023-03-16T23:58:19.051Z,1.01
